createdAt,value
2022-08-27T00:00:32.916Z,18.52
2022-08-27T00:02:59.729Z,20.25
2022-08-27T00:05:26.808Z,19.77
2022-08-27T00:07:53.820Z,19.48
2022-08-27T00:10:25.063Z,14.82
2022-08-27T00:12:52.281Z,18.83
2022-08-27T00:15:24.269Z,15.50
2022-08-27T00:18:10.852Z,15.90
2022-08-27T00:20:57.668Z,15.15
2022-08-27T00:23:44.858Z,18.85
2022-08-27T00:26:31.787Z,18.58
2022-08-27T00:29:19.349Z,15.48
2022-08-27T00:32:06.535Z,14.88
2022-08-27T00:34:33.044Z,21.33
2022-08-27T00:37:00.184Z,14.50
2022-08-27T00:39:27.163Z,16.27
2022-08-27T00:41:53.634Z,24.42
2022-08-27T00:44:20.732Z,20.45
2022-08-27T00:46:54.186Z,10.07
2022-08-27T00:49:51.123Z,14.00
2022-08-27T00:52:28.096Z,21.05
2022-08-27T00:55:10.104Z,15.57
2022-08-27T00:57:39.004Z,11.90
2022-08-27T01:00:11.798Z,12.25
2022-08-27T01:02:39.033Z,13.88
2022-08-27T01:05:09.183Z,14.30
2022-08-27T01:10:13.911Z,13.30
2022-08-27T01:12:41.283Z,11.20
2022-08-27T01:15:16.934Z,13.63
2022-08-27T01:17:48.044Z,16.73
2022-08-27T01:20:44.006Z,9.98
2022-08-27T01:23:18.765Z,11.20
2022-08-27T01:25:45.832Z,14.15
2022-08-27T01:28:14.282Z,10.80
2022-08-27T01:30:42.099Z,15.10
2022-08-27T01:33:14.915Z,14.73
2022-08-27T01:35:47.139Z,13.13
2022-08-27T01:38:30.210Z,9.85
2022-08-27T01:41:02.153Z,14.75
2022-08-27T01:43:31.532Z,14.70
2022-08-27T01:45:58.379Z,16.70
2022-08-27T01:48:24.895Z,15.90
2022-08-27T01:50:51.952Z,12.27
2022-08-27T01:53:22.021Z,13.70
2022-08-27T01:55:51.843Z,8.38
2022-08-27T01:58:22.425Z,15.60
2022-08-27T02:00:54.201Z,10.13
2022-08-27T02:03:24.634Z,17.52
2022-08-27T02:05:51.704Z,12.45
2022-08-27T02:08:19.656Z,12.13
2022-08-27T02:10:48.032Z,14.38
2022-08-27T02:13:14.961Z,12.18
2022-08-27T02:15:43.038Z,14.00
2022-08-27T02:18:11.431Z,11.85
2022-08-27T02:20:38.597Z,15.90
2022-08-27T02:23:05.170Z,15.02
2022-08-27T02:25:32.069Z,13.27
2022-08-27T02:28:00.645Z,12.90
2022-08-27T02:30:31.913Z,11.05
2022-08-27T02:33:01.134Z,12.25
2022-08-27T02:35:30.034Z,11.98
2022-08-27T02:37:56.953Z,13.10
2022-08-27T02:40:24.345Z,13.55
2022-08-27T02:42:51.384Z,9.35
2022-08-27T02:45:18.858Z,14.10
2022-08-27T02:47:46.394Z,18.10
2022-08-27T02:50:14.336Z,13.38
2022-08-27T02:52:41.640Z,16.92
2022-08-27T02:55:08.688Z,10.98
2022-08-27T02:57:36.757Z,10.88
2022-08-27T03:00:11.295Z,11.27
2022-08-27T03:02:39.213Z,14.95
2022-08-27T03:05:08.471Z,14.77
2022-08-27T03:07:35.761Z,17.67
2022-08-27T03:10:02.303Z,12.20
2022-08-27T03:12:28.754Z,18.02
2022-08-27T03:14:55.500Z,11.23
2022-08-27T03:17:58.134Z,11.93
2022-08-27T03:20:25.703Z,13.65
2022-08-27T03:22:52.460Z,16.95
2022-08-27T03:25:19.554Z,13.93
2022-08-27T03:27:46.869Z,12.02
2022-08-27T03:30:17.672Z,15.30
2022-08-27T03:32:44.822Z,11.32
2022-08-27T03:35:15.489Z,14.63
2022-08-27T03:37:42.724Z,14.27
2022-08-27T03:40:10.407Z,19.00
2022-08-27T03:42:37.348Z,18.65
2022-08-27T03:45:07.296Z,14.40
2022-08-27T03:47:34.576Z,18.58
2022-08-27T03:50:01.492Z,17.95
2022-08-27T03:52:29.462Z,16.67
2022-08-27T03:54:56.275Z,23.38
2022-08-27T03:57:23.143Z,12.40
2022-08-27T03:59:50.152Z,11.43
2022-08-27T04:02:19.559Z,16.95
2022-08-27T04:04:46.546Z,20.17
2022-08-27T04:07:13.170Z,19.45
2022-08-27T04:09:39.698Z,20.60
2022-08-27T04:12:06.816Z,14.27
2022-08-27T04:14:34.132Z,17.52
2022-08-27T04:17:01.303Z,15.18
2022-08-27T04:19:28.636Z,13.73
2022-08-27T04:22:15.133Z,16.08
2022-08-27T04:24:41.817Z,15.35
2022-08-27T04:27:08.916Z,17.00
2022-08-27T04:29:35.567Z,17.67
2022-08-27T04:32:03.789Z,19.33
2022-08-27T04:34:33.356Z,11.90
2022-08-27T04:37:00.121Z,20.73
2022-08-27T04:39:29.539Z,19.52
2022-08-27T04:41:58.330Z,15.43
2022-08-27T04:44:30.786Z,14.25
2022-08-27T04:47:04.873Z,16.02
2022-08-27T04:49:32.760Z,18.10
2022-08-27T04:52:00.622Z,14.35
2022-08-27T04:54:32.915Z,17.48
2022-08-27T04:57:01.200Z,16.77
2022-08-27T04:59:27.868Z,20.17
2022-08-27T05:01:54.657Z,17.80
2022-08-27T05:04:21.205Z,15.52
2022-08-27T05:06:49.588Z,14.35
2022-08-27T05:09:17.780Z,19.48
2022-08-27T05:11:45.579Z,11.93
2022-08-27T05:14:16.098Z,12.07
2022-08-27T05:16:42.892Z,16.48
2022-08-27T05:19:14.813Z,15.40
2022-08-27T05:21:46.711Z,16.48
2022-08-27T05:24:14.700Z,17.08
2022-08-27T05:26:41.446Z,14.00
2022-08-27T05:29:08.231Z,19.10
2022-08-27T05:31:35.346Z,16.13
2022-08-27T05:34:03.615Z,13.25
2022-08-27T05:36:37.215Z,16.05
2022-08-27T05:39:06.294Z,14.80
2022-08-27T05:41:34.528Z,13.85
2022-08-27T05:44:18.396Z,19.67
2022-08-27T05:46:46.180Z,16.75
2022-08-27T05:49:12.862Z,18.73
2022-08-27T05:51:40.299Z,13.13
2022-08-27T05:54:15.094Z,14.93
2022-08-27T05:56:43.140Z,14.85
2022-08-27T05:59:28.567Z,16.85
2022-08-27T06:01:56.307Z,18.42
2022-08-27T06:04:24.354Z,12.65
2022-08-27T06:06:52.276Z,14.23
2022-08-27T06:09:25.839Z,12.05
2022-08-27T06:11:58.329Z,16.60
2022-08-27T06:14:24.903Z,13.15
2022-08-27T06:16:52.008Z,14.35
2022-08-27T06:19:18.849Z,17.10
2022-08-27T06:21:45.620Z,10.38
2022-08-27T06:24:13.711Z,21.25
2022-08-27T06:26:42.739Z,12.35
2022-08-27T06:29:09.832Z,14.80
2022-08-27T06:31:37.271Z,13.95
2022-08-27T06:34:07.951Z,20.40
2022-08-27T06:36:41.141Z,11.33
2022-08-27T06:39:08.968Z,15.98
2022-08-27T06:41:36.070Z,18.70
2022-08-27T06:44:11.439Z,16.25
2022-08-27T06:46:38.880Z,20.05
2022-08-27T06:49:05.713Z,16.45
2022-08-27T06:51:35.117Z,17.35
2022-08-27T06:54:05.948Z,15.55
2022-08-27T06:56:33.522Z,12.55
2022-08-27T06:59:02.734Z,19.25
2022-08-27T07:01:32.905Z,13.02
2022-08-27T07:04:02.155Z,16.00
2022-08-27T07:06:32.071Z,16.42
2022-08-27T07:08:59.359Z,12.77
2022-08-27T07:11:28.399Z,14.40
2022-08-27T07:13:56.119Z,13.00
2022-08-27T07:16:25.387Z,14.95
2022-08-27T07:18:54.915Z,18.02
2022-08-27T07:21:26.334Z,13.23
2022-08-27T07:23:54.457Z,17.30
2022-08-27T07:26:23.080Z,12.70
2022-08-27T07:28:50.460Z,12.15
2022-08-27T07:31:22.273Z,19.17
2022-08-27T07:33:52.639Z,14.10
2022-08-27T07:36:22.797Z,22.08
2022-08-27T07:38:56.572Z,14.85
2022-08-27T07:41:31.366Z,16.35
2022-08-27T07:44:20.555Z,12.90
2022-08-27T07:46:48.605Z,16.58
2022-08-27T07:49:17.373Z,16.67
2022-08-27T07:51:44.855Z,13.63
2022-08-27T07:54:12.074Z,16.58
2022-08-27T07:56:38.998Z,15.70
2022-08-27T07:59:05.702Z,14.70
2022-08-27T08:01:32.633Z,12.63
2022-08-27T08:04:00.675Z,16.35
2022-08-27T08:06:27.172Z,17.08
2022-08-27T08:08:53.962Z,18.77
2022-08-27T08:11:21.158Z,21.42
2022-08-27T08:13:48.556Z,14.98
2022-08-27T08:16:16.089Z,10.82
2022-08-27T08:18:43.302Z,14.23
2022-08-27T08:21:13.324Z,16.90
2022-08-27T08:23:40.345Z,14.02
2022-08-27T08:26:08.196Z,13.55
2022-08-27T08:28:34.964Z,17.05
2022-08-27T08:31:02.233Z,15.43
2022-08-27T08:33:31.590Z,16.10
2022-08-27T08:36:13.486Z,18.63
2022-08-27T08:38:41.148Z,17.77
2022-08-27T08:41:22.725Z,16.90
2022-08-27T08:43:51.888Z,13.63
2022-08-27T08:46:38.969Z,14.75
2022-08-27T08:49:28.961Z,15.80
2022-08-27T08:52:00.543Z,12.05
2022-08-27T08:54:33.855Z,14.38
2022-08-27T08:57:18.805Z,14.30
2022-08-27T08:59:51.365Z,13.60
2022-08-27T09:02:18.145Z,12.30
2022-08-27T09:04:44.884Z,12.23
2022-08-27T09:07:35.141Z,12.27
2022-08-27T09:10:09.507Z,15.45
2022-08-27T09:12:36.804Z,8.93
2022-08-27T09:15:06.667Z,13.93
2022-08-27T09:17:36.467Z,10.43
2022-08-27T09:20:05.367Z,15.77
2022-08-27T09:22:53.491Z,12.50
2022-08-27T09:25:33.022Z,15.05
2022-08-27T09:28:06.588Z,14.80
2022-08-27T09:30:43.229Z,9.77
2022-08-27T09:33:10.987Z,17.13
2022-08-27T09:35:46.604Z,13.48
2022-08-27T09:38:27.306Z,11.57
2022-08-27T09:40:59.820Z,10.82
2022-08-27T09:43:28.717Z,14.07
2022-08-27T09:46:00.415Z,11.90
2022-08-27T09:48:28.765Z,10.82
2022-08-27T09:50:58.342Z,9.32
2022-08-27T09:53:57.495Z,12.07
2022-08-27T09:56:34.687Z,14.18
2022-08-27T09:59:12.193Z,12.73
2022-08-27T10:01:54.597Z,13.07
2022-08-27T10:04:27.001Z,10.35
2022-08-27T10:06:56.240Z,10.15
2022-08-27T10:09:31.521Z,15.23
2022-08-27T10:12:17.545Z,12.68
2022-08-27T10:14:50.377Z,10.52
2022-08-27T10:17:41.196Z,13.77
2022-08-27T10:20:20.352Z,12.13
2022-08-27T10:22:56.852Z,12.00
2022-08-27T10:25:41.382Z,8.10
2022-08-27T10:28:27.862Z,12.50
2022-08-27T10:31:16.993Z,13.77
2022-08-27T10:33:59.091Z,11.70
2022-08-27T10:36:34.624Z,10.25
2022-08-27T10:39:40.282Z,9.80
2022-08-27T10:42:26.985Z,11.60
2022-08-27T10:45:05.095Z,17.30
2022-08-27T10:47:57.484Z,13.45
2022-08-27T10:50:36.670Z,12.52
2022-08-27T10:53:26.875Z,10.80
2022-08-27T10:56:08.719Z,14.65
2022-08-27T10:58:50.251Z,15.77
2022-08-27T11:01:20.573Z,10.45
2022-08-27T11:04:03.327Z,10.20
2022-08-27T11:06:46.663Z,9.85
2022-08-27T11:09:19.724Z,10.27
2022-08-27T11:12:13.344Z,12.75
2022-08-27T11:14:56.800Z,8.50
2022-08-27T11:17:42.032Z,11.82
2022-08-27T11:20:19.132Z,11.50
2022-08-27T11:22:51.149Z,8.18
2022-08-27T11:25:46.607Z,7.93
2022-08-27T11:28:14.706Z,14.55
2022-08-27T11:31:07.394Z,9.82
2022-08-27T11:33:52.925Z,9.32
2022-08-27T11:36:38.586Z,10.00
2022-08-27T11:39:20.491Z,6.47
2022-08-27T11:41:59.029Z,8.82
2022-08-27T11:44:26.794Z,6.97
2022-08-27T11:46:56.517Z,10.30
2022-08-27T11:51:58.495Z,8.38
2022-08-27T11:54:44.400Z,9.85
2022-08-27T11:57:16.812Z,9.25
2022-08-27T11:59:43.520Z,8.07
2022-08-27T12:02:20.427Z,9.25
2022-08-27T12:04:48.145Z,6.30
2022-08-27T12:07:21.679Z,13.80
2022-08-27T12:10:20.259Z,7.95
2022-08-27T12:13:04.222Z,6.63
2022-08-27T12:15:48.135Z,5.57
2022-08-27T12:18:37.023Z,6.47
2022-08-27T12:21:20.611Z,7.40
2022-08-27T12:23:56.887Z,11.48
2022-08-27T12:26:26.575Z,7.20
2022-08-27T12:29:24.269Z,11.65
2022-08-27T12:32:36.074Z,8.07
2022-08-27T12:35:29.248Z,9.52
2022-08-27T12:38:11.778Z,13.68
2022-08-27T12:40:45.688Z,11.75
2022-08-27T12:43:14.871Z,7.53
2022-08-27T12:45:47.048Z,7.50
2022-08-27T12:48:17.053Z,8.35
2022-08-27T12:50:43.731Z,12.10
2022-08-27T12:53:21.421Z,9.00
2022-08-27T12:55:58.900Z,7.93
2022-08-27T12:58:40.295Z,9.20
2022-08-27T13:01:29.166Z,9.77
2022-08-27T13:03:56.954Z,9.85
2022-08-27T13:06:26.875Z,9.88
2022-08-27T13:09:02.150Z,6.30
2022-08-27T13:11:33.078Z,9.52
2022-08-27T13:14:20.275Z,11.48
2022-08-27T13:16:53.991Z,9.32
2022-08-27T13:19:31.213Z,6.93
2022-08-27T13:22:01.132Z,5.93
2022-08-27T13:24:34.761Z,4.47
2022-08-27T13:27:06.430Z,7.63
2022-08-27T13:29:33.146Z,8.98
2022-08-27T13:32:00.768Z,6.40
2022-08-27T13:34:32.209Z,10.05
2022-08-27T13:37:20.850Z,10.55
2022-08-27T13:39:47.381Z,7.38
2022-08-27T13:42:17.352Z,6.20
2022-08-27T13:47:19.608Z,5.15
2022-08-27T13:49:46.512Z,9.73
2022-08-27T13:52:25.543Z,8.55
2022-08-27T13:55:06.035Z,6.90
2022-08-27T13:57:41.285Z,5.57
2022-08-27T14:00:18.380Z,11.00
2022-08-27T14:02:55.948Z,7.63
2022-08-27T14:05:23.289Z,8.68
2022-08-27T14:07:56.071Z,10.23
2022-08-27T14:10:36.881Z,6.50
2022-08-27T14:13:31.924Z,10.95
2022-08-27T14:16:00.087Z,7.35
2022-08-27T14:18:58.017Z,6.60
2022-08-27T14:21:23.835Z,5.35
2022-08-27T14:23:51.810Z,8.55
2022-08-27T14:26:18.409Z,10.82
2022-08-27T14:28:46.225Z,6.72
2022-08-27T14:31:13.786Z,7.60
2022-08-27T14:33:40.550Z,6.65
2022-08-27T14:36:08.813Z,5.82
2022-08-27T14:38:40.870Z,8.35
2022-08-27T14:41:08.573Z,7.57
2022-08-27T14:43:35.219Z,8.43
2022-08-27T14:46:04.664Z,5.50
2022-08-27T14:48:33.765Z,7.63
2022-08-27T14:51:22.931Z,12.73
2022-08-27T14:53:51.107Z,13.57
2022-08-27T14:56:18.276Z,8.60
2022-08-27T14:58:44.748Z,9.07
2022-08-27T15:01:11.637Z,6.68
2022-08-27T15:03:43.860Z,8.65
2022-08-27T15:06:10.405Z,10.10
2022-08-27T15:08:37.176Z,8.27
2022-08-27T15:11:08.851Z,5.35
2022-08-27T15:13:38.472Z,9.05
2022-08-27T15:16:05.558Z,9.45
2022-08-27T15:18:32.445Z,4.38
2022-08-27T15:21:00.206Z,4.80
2022-08-27T15:23:26.814Z,11.05
2022-08-27T15:25:53.766Z,7.93
2022-08-27T15:28:20.515Z,5.75
2022-08-27T15:30:47.230Z,6.82
2022-08-27T15:33:13.912Z,6.00
2022-08-27T15:35:41.071Z,8.90
2022-08-27T15:38:07.820Z,6.82
2022-08-27T15:40:36.065Z,4.55
2022-08-27T15:43:05.942Z,6.47
2022-08-27T15:45:33.626Z,4.50
2022-08-27T15:48:00.364Z,4.97
2022-08-27T15:50:28.673Z,5.28
2022-08-27T15:53:01.566Z,6.63
2022-08-27T15:55:37.510Z,4.55
2022-08-27T15:58:05.701Z,5.40
2022-08-27T16:00:34.159Z,6.32
2022-08-27T16:03:05.185Z,4.20
2022-08-27T16:05:34.805Z,7.10
2022-08-27T16:08:01.800Z,5.50
2022-08-27T16:10:28.530Z,7.50
2022-08-27T16:12:58.588Z,8.82
2022-08-27T16:15:25.616Z,6.47
2022-08-27T16:17:58.681Z,7.32
2022-08-27T16:20:30.532Z,8.52
2022-08-27T16:22:57.128Z,9.05
2022-08-27T16:25:23.884Z,6.22
2022-08-27T16:27:51.471Z,5.43
2022-08-27T16:30:18.770Z,5.47
2022-08-27T16:32:48.123Z,8.40
2022-08-27T16:35:15.519Z,8.27
2022-08-27T16:37:44.130Z,7.40
2022-08-27T16:40:13.849Z,6.55
2022-08-27T16:42:44.872Z,5.85
2022-08-27T16:45:14.239Z,5.97
2022-08-27T16:48:03.692Z,7.72
2022-08-27T16:50:33.823Z,5.10
2022-08-27T16:53:16.265Z,6.28
2022-08-27T16:55:44.895Z,5.55
2022-08-27T16:58:18.967Z,5.70
2022-08-27T17:00:49.182Z,6.10
2022-08-27T17:03:17.540Z,4.38
2022-08-27T17:05:44.278Z,7.00
2022-08-27T17:08:13.714Z,8.27
2022-08-27T17:10:45.769Z,6.22
2022-08-27T17:13:15.785Z,6.35
2022-08-27T17:18:10.631Z,10.88
2022-08-27T17:20:37.401Z,4.68
2022-08-27T17:23:05.477Z,5.20
2022-08-27T17:25:31.999Z,7.15
2022-08-27T17:28:00.397Z,6.95
2022-08-27T17:30:27.622Z,14.35
2022-08-27T17:32:54.497Z,8.50
2022-08-27T17:35:21.335Z,8.63
2022-08-27T17:37:48.204Z,6.82
2022-08-27T17:40:14.932Z,6.50
2022-08-27T17:42:41.744Z,6.93
2022-08-27T17:45:08.775Z,13.15
2022-08-27T17:47:35.439Z,16.13
2022-08-27T17:50:04.579Z,12.43
2022-08-27T17:52:33.225Z,12.27
2022-08-27T17:54:59.955Z,14.80
2022-08-27T17:57:40.348Z,12.00
2022-08-27T18:00:11.985Z,12.15
2022-08-27T18:02:45.504Z,14.35
2022-08-27T18:05:14.078Z,11.70
2022-08-27T18:07:42.202Z,12.10
2022-08-27T18:10:11.329Z,11.30
2022-08-27T18:12:40.004Z,9.32
2022-08-27T18:15:07.267Z,6.85
2022-08-27T18:17:35.638Z,7.70
2022-08-27T18:20:03.985Z,7.47
2022-08-27T18:22:34.993Z,7.05
2022-08-27T18:25:06.845Z,11.68
2022-08-27T18:27:35.010Z,5.50
2022-08-27T18:30:03.252Z,7.25
2022-08-27T18:32:30.064Z,8.35
2022-08-27T18:34:58.640Z,9.65
2022-08-27T18:37:25.120Z,6.32
2022-08-27T18:39:53.544Z,4.05
2022-08-27T18:42:20.503Z,5.13
2022-08-27T18:44:47.435Z,6.28
2022-08-27T18:47:13.964Z,11.35
2022-08-27T18:49:40.449Z,4.90
2022-08-27T18:52:08.771Z,4.70
2022-08-27T18:54:35.563Z,9.18
2022-08-27T18:57:01.997Z,5.05
2022-08-27T18:59:28.777Z,4.70
2022-08-27T19:01:56.204Z,4.50
2022-08-27T19:04:23.515Z,7.13
2022-08-27T19:06:50.431Z,10.15
2022-08-27T19:09:17.680Z,3.83
2022-08-27T19:11:44.602Z,8.60
2022-08-27T19:14:11.064Z,4.43
2022-08-27T19:16:47.275Z,8.38
2022-08-27T19:19:16.723Z,5.47
2022-08-27T19:21:46.932Z,7.17
2022-08-27T19:24:17.099Z,5.88
2022-08-27T19:26:44.226Z,4.55
2022-08-27T19:29:11.396Z,6.57
2022-08-27T19:31:38.688Z,5.95
2022-08-27T19:34:09.634Z,3.80
2022-08-27T19:36:41.802Z,7.40
2022-08-27T19:39:10.316Z,4.28
2022-08-27T19:41:37.351Z,9.82
2022-08-27T19:44:04.331Z,7.88
2022-08-27T19:46:32.665Z,4.55
2022-08-27T19:48:59.563Z,11.85
2022-08-27T19:51:26.039Z,6.35
2022-08-27T19:53:52.629Z,4.95
2022-08-27T19:56:19.653Z,5.95
2022-08-27T19:58:46.231Z,8.95
2022-08-27T20:01:13.139Z,7.32
2022-08-27T20:03:40.543Z,4.28
2022-08-27T20:06:07.115Z,4.40
2022-08-27T20:08:33.795Z,5.28
2022-08-27T20:11:01.770Z,4.70
2022-08-27T20:13:32.837Z,4.35
2022-08-27T20:16:00.649Z,4.50
2022-08-27T20:18:27.160Z,5.03
2022-08-27T20:20:54.234Z,3.55
2022-08-27T20:23:21.013Z,8.40
2022-08-27T20:25:47.742Z,5.70
2022-08-27T20:28:37.677Z,6.45
2022-08-27T20:31:01.735Z,4.70
2022-08-27T20:33:28.459Z,5.57
2022-08-27T20:35:56.631Z,7.07
2022-08-27T20:38:23.632Z,5.63
2022-08-27T20:40:50.345Z,4.90
2022-08-27T20:43:18.423Z,6.82
2022-08-27T20:45:45.339Z,8.82
2022-08-27T20:48:12.415Z,6.82
2022-08-27T20:50:39.664Z,12.10
2022-08-27T20:53:06.604Z,7.25
2022-08-27T20:55:33.287Z,6.97
2022-08-27T20:58:18.507Z,7.15
2022-08-27T21:00:45.449Z,10.48
2022-08-27T21:03:13.932Z,7.43
2022-08-27T21:05:42.703Z,15.30
2022-08-27T21:08:09.405Z,8.60
2022-08-27T21:10:35.988Z,9.73
2022-08-27T21:13:05.203Z,8.75
2022-08-27T21:15:32.780Z,13.18
2022-08-27T21:17:59.476Z,7.82
2022-08-27T21:20:26.225Z,7.38
2022-08-27T21:22:52.743Z,10.93
2022-08-27T21:25:19.330Z,10.73
2022-08-27T21:27:46.360Z,8.55
2022-08-27T21:30:13.151Z,9.75
2022-08-27T21:32:40.229Z,6.25
2022-08-27T21:35:07.171Z,8.05
2022-08-27T21:37:34.413Z,4.90
2022-08-27T21:40:01.187Z,5.13
2022-08-27T21:42:27.911Z,7.63
2022-08-27T21:44:54.898Z,6.18
2022-08-27T21:47:21.335Z,8.70
2022-08-27T21:49:48.292Z,9.65
2022-08-27T21:52:15.332Z,7.90
2022-08-27T21:54:42.877Z,12.25
2022-08-27T21:57:10.663Z,6.63
2022-08-27T21:59:47.524Z,9.65
2022-08-27T22:02:38.293Z,8.68
2022-08-27T22:05:02.324Z,12.75
2022-08-27T22:07:28.812Z,6.03
2022-08-27T22:09:55.483Z,8.50
2022-08-27T22:12:22.388Z,13.82
2022-08-27T22:14:49.048Z,8.02
2022-08-27T22:17:15.932Z,7.55
2022-08-27T22:19:43.364Z,7.53
2022-08-27T22:22:10.053Z,7.43
2022-08-27T22:24:36.731Z,7.90
2022-08-27T22:27:04.127Z,9.60
2022-08-27T22:29:30.818Z,6.32
2022-08-27T22:31:57.426Z,9.02
2022-08-27T22:34:24.103Z,8.43
2022-08-27T22:36:50.785Z,10.50
2022-08-27T22:39:17.305Z,5.85
2022-08-27T22:41:48.096Z,9.38
2022-08-27T22:44:15.563Z,7.30
2022-08-27T22:46:42.161Z,5.97
2022-08-27T22:49:08.844Z,8.10
2022-08-27T22:51:35.552Z,7.72
2022-08-27T22:54:02.008Z,12.63
2022-08-27T22:56:28.558Z,6.30
2022-08-27T22:58:55.392Z,12.82
2022-08-27T23:01:22.698Z,6.60
2022-08-27T23:03:49.388Z,8.52
2022-08-27T23:06:15.935Z,9.73
2022-08-27T23:08:42.540Z,8.15
2022-08-27T23:11:09.481Z,8.50
2022-08-27T23:13:36.009Z,8.25
2022-08-27T23:16:03.522Z,10.70
2022-08-27T23:18:30.377Z,12.32
2022-08-27T23:20:57.295Z,7.43
2022-08-27T23:23:27.635Z,7.80
2022-08-27T23:26:16.875Z,9.70
2022-08-27T23:28:44.152Z,8.38
2022-08-27T23:31:11.250Z,7.70
2022-08-27T23:33:38.376Z,9.13
2022-08-27T23:36:06.116Z,10.90
2022-08-27T23:38:33.929Z,7.07
2022-08-27T23:41:00.539Z,9.05
2022-08-27T23:43:28.363Z,10.18
2022-08-27T23:45:54.882Z,7.40
2022-08-27T23:48:21.914Z,12.45
2022-08-27T23:50:48.683Z,7.70
2022-08-27T23:53:15.185Z,9.32
2022-08-27T23:55:42.196Z,8.00
2022-08-27T23:58:09.043Z,8.70
